Time;durP1;ratioP1;P1;durP2;ratioP2;P2;SDS_P1;SDS_P2;PMS_P1;PMS_P2;Temp;Humidity;BMP_temperature;BMP_pressure;BME280_temperature;BME280_humidity;BME280_pressure;Samples;Min_cycle;Max_cycle;Signal;HPM_P1;HPM_P2
2022/07/09 05:00:27;;;;;;;5.03;3.40;;;16.20;97.20;;;;;;1714866;28;20193;-71
2022/07/09 05:01:18;;;;;;;4.35;2.95;;;16.20;97.20;;;;;;1714779;28;20292;-72
2022/07/09 05:02:10;;;;;;;4.17;3.10;;;16.20;97.20;;;;;;1714793;28;20202;-71
2022/07/09 05:03:01;;;;;;;4.70;2.75;;;16.20;97.20;;;;;;1714630;28;20446;-71
2022/07/09 05:03:53;;;;;;;3.53;3.08;;;16.30;97.20;;;;;;1714784;28;20205;-71
2022/07/09 05:04:44;;;;;;;3.22;2.75;;;16.30;97.20;;;;;;1714775;28;20210;-71
2022/07/09 05:05:35;;;;;;;4.13;3.10;;;16.30;97.20;;;;;;1714765;28;20234;-72
2022/07/09 05:06:26;;;;;;;3.28;2.95;;;16.30;97.20;;;;;;1714832;28;20751;-71
2022/07/09 05:07:18;;;;;;;5.20;3.67;;;16.30;97.20;;;;;;1714507;28;20679;-71
2022/07/09 05:08:09;;;;;;;4.28;3.30;;;16.30;97.20;;;;;;1714606;28;20206;-71
2022/07/09 05:09:00;;;;;;;5.17;2.87;;;16.40;97.20;;;;;;1714689;28;20272;-71
2022/07/09 05:09:51;;;;;;;4.15;2.70;;;16.40;97.20;;;;;;1714798;28;20218;-71
2022/07/09 05:10:43;;;;;;;4.97;3.03;;;16.40;97.20;;;;;;1714761;28;20290;-71
2022/07/09 05:11:34;;;;;;;5.47;3.00;;;16.40;97.20;;;;;;1714721;28;20205;-71
2022/07/09 05:12:26;;;;;;;4.63;2.97;;;16.50;97.20;;;;;;1714716;28;20216;-71
2022/07/09 05:13:16;;;;;;;3.38;2.65;;;16.50;97.20;;;;;;1714422;28;20205;-71
2022/07/09 05:14:08;;;;;;;2.93;2.63;;;16.50;97.20;;;;;;1714781;28;20282;-71
2022/07/09 05:14:59;;;;;;;3.65;2.92;;;16.50;97.20;;;;;;1714687;28;20205;-71
2022/07/09 05:15:52;;;;;;;4.15;2.95;;;16.50;97.20;;;;;;1714624;28;20194;-71
2022/07/09 05:16:44;;;;;;;8.45;3.72;;;16.60;97.20;;;;;;1714379;28;20213;-72
2022/07/09 05:17:37;;;;;;;2.83;2.60;;;16.60;97.20;;;;;;1714649;28;20233;-71
2022/07/09 05:18:29;;;;;;;3.97;3.10;;;16.60;97.20;;;;;;1714626;28;20202;-72
2022/07/09 05:19:21;;;;;;;3.47;3.17;;;16.60;97.20;;;;;;1714576;28;20301;-71
2022/07/09 05:20:11;;;;;;;5.97;3.15;;;16.60;97.20;;;;;;1714711;28;20707;-71
2022/07/09 05:21:03;;;;;;;4.80;3.03;;;16.60;97.20;;;;;;1714721;28;20643;-72
2022/07/09 05:21:54;;;;;;;4.30;3.33;;;16.60;97.20;;;;;;1714606;28;20441;-72
2022/07/09 05:22:45;;;;;;;4.15;3.30;;;16.60;97.20;;;;;;1714661;28;20205;-71
2022/07/09 05:23:37;;;;;;;3.67;3.37;;;16.70;97.20;;;;;;1714554;28;20701;-71
2022/07/09 05:24:28;;;;;;;4.88;3.40;;;16.70;97.20;;;;;;1714636;28;20216;-71
2022/07/09 05:25:19;;;;;;;3.70;3.10;;;16.70;97.20;;;;;;1714642;28;20229;-72
2022/07/09 05:26:10;;;;;;;3.13;2.90;;;16.80;97.20;;;;;;1714597;28;20213;-71
2022/07/09 05:27:03;;;;;;;5.10;3.33;;;16.80;97.20;;;;;;1714348;28;20288;-71
2022/07/09 05:27:54;;;;;;;3.78;3.00;;;16.80;97.20;;;;;;1714553;28;20213;-71
2022/07/09 05:28:46;;;;;;;4.67;3.50;;;16.90;97.20;;;;;;1714627;28;20236;-71
2022/07/09 05:29:37;;;;;;;3.33;2.70;;;16.80;97.20;;;;;;1714657;28;20205;-71
2022/07/09 05:30:28;;;;;;;3.85;2.90;;;16.90;97.20;;;;;;1714591;28;20205;-72
2022/07/09 05:31:20;;;;;;;4.90;3.00;;;16.90;97.20;;;;;;1714561;28;20206;-71
2022/07/09 05:32:12;;;;;;;3.38;3.05;;;16.90;97.20;;;;;;1714627;28;20286;-72
2022/07/09 05:33:03;;;;;;;4.68;3.10;;;16.80;97.20;;;;;;1714463;28;20213;-71
2022/07/09 05:33:55;;;;;;;7.57;3.33;;;16.80;97.20;;;;;;1714240;28;20226;-71
2022/07/09 05:34:46;;;;;;;4.70;3.30;;;16.90;97.20;;;;;;1714568;28;20275;-71
2022/07/09 05:35:38;;;;;;;12.13;3.30;;;16.80;97.20;;;;;;1714542;28;20206;-71
2022/07/09 05:36:29;;;;;;;3.70;2.70;;;16.80;97.20;;;;;;1714515;28;20237;-71
2022/07/09 05:37:21;;;;;;;4.20;3.25;;;16.90;97.20;;;;;;1714226;28;20289;-71
2022/07/09 05:38:11;;;;;;;7.88;2.85;;;16.90;97.20;;;;;;1714536;28;20202;-72
2022/07/09 05:39:04;;;;;;;4.32;2.97;;;16.90;97.20;;;;;;1714548;28;20621;-72
2022/07/09 05:39:56;;;;;;;4.85;2.95;;;16.90;97.20;;;;;;1714494;28;20265;-71
2022/07/09 05:40:48;;;;;;;6.43;2.80;;;16.90;97.20;;;;;;1714505;28;20357;-71
2022/07/09 05:41:39;;;;;;;4.10;2.60;;;16.90;97.20;;;;;;1714540;28;20210;-72
2022/07/09 05:42:31;;;;;;;5.93;2.87;;;17.00;97.20;;;;;;1714566;28;20277;-71
2022/07/09 05:43:21;;;;;;;8.02;3.30;;;17.00;97.20;;;;;;1714353;28;20222;-72
2022/07/09 05:44:13;;;;;;;4.47;2.67;;;17.00;97.20;;;;;;1714476;28;20213;-71
2022/07/09 05:45:05;;;;;;;3.15;2.85;;;17.00;97.20;;;;;;1714497;28;20215;-71
2022/07/09 05:45:57;;;;;;;3.65;3.00;;;17.10;97.20;;;;;;1714408;28;20202;-71
2022/07/09 05:46:49;;;;;;;3.20;2.53;;;17.10;97.20;;;;;;1714040;28;20661;-71
2022/07/09 05:47:41;;;;;;;3.15;2.75;;;17.10;97.20;;;;;;1714305;28;20206;-71
2022/07/09 05:48:32;;;;;;;2.97;2.67;;;17.20;97.20;;;;;;1714470;28;20210;-71
2022/07/09 05:49:23;;;;;;;4.70;3.10;;;17.20;97.20;;;;;;1714483;28;20700;-71
2022/07/09 05:50:14;;;;;;;5.05;2.92;;;17.20;97.20;;;;;;1714468;28;20212;-71
2022/07/09 05:51:06;;;;;;;6.80;3.00;;;17.30;97.20;;;;;;1714441;28;20281;-71
2022/07/09 05:51:57;;;;;;;4.10;2.80;;;17.30;97.20;;;;;;1714430;28;20202;-72
2022/07/09 05:52:49;;;;;;;4.47;2.83;;;17.40;97.20;;;;;;1714445;28;20708;-72
2022/07/09 05:53:39;;;;;;;5.65;3.25;;;17.40;97.20;;;;;;1714327;28;20832;-71
2022/07/09 05:54:31;;;;;;;3.37;2.37;;;17.40;97.20;;;;;;1714534;28;20313;-71
2022/07/09 05:55:22;;;;;;;5.22;3.13;;;17.40;97.20;;;;;;1714479;28;20210;-71
2022/07/09 05:56:14;;;;;;;3.97;2.77;;;17.40;97.20;;;;;;1714382;28;20293;-71
2022/07/09 05:57:05;;;;;;;3.70;2.53;;;17.40;97.20;;;;;;1714176;28;20225;-71
2022/07/09 05:57:57;;;;;;;5.97;2.80;;;17.50;97.20;;;;;;1714303;28;20262;-71
2022/07/09 05:58:48;;;;;;;6.72;2.90;;;17.50;97.20;;;;;;1714456;28;20209;-71
2022/07/09 05:59:39;;;;;;;3.60;3.00;;;17.50;97.20;;;;;;1714305;28;20320;-71
2022/07/09 06:00:30;;;;;;;4.13;2.75;;;17.50;97.20;;;;;;1714388;28;20964;-71
2022/07/09 06:01:22;;;;;;;3.30;3.00;;;17.50;97.20;;;;;;1714328;28;20545;-71
2022/07/09 06:02:14;;;;;;;4.10;2.33;;;17.60;97.20;;;;;;1714321;28;20206;-71
2022/07/09 06:03:06;;;;;;;5.38;2.65;;;17.60;97.20;;;;;;1714236;28;20197;-71
2022/07/09 06:03:56;;;;;;;3.60;2.95;;;17.60;97.20;;;;;;1714309;28;20202;-72
2022/07/09 06:04:48;;;;;;;3.60;2.57;;;17.60;97.20;;;;;;1714352;28;20281;-71
2022/07/09 06:05:39;;;;;;;6.45;3.13;;;17.60;97.20;;;;;;1714306;28;20248;-71
2022/07/09 06:06:31;;;;;;;3.80;3.10;;;17.60;97.20;;;;;;1714413;28;20696;-71
2022/07/09 06:07:22;;;;;;;3.92;2.38;;;17.70;97.20;;;;;;1714188;28;20260;-71
2022/07/09 06:08:14;;;;;;;2.27;2.07;;;17.70;97.20;;;;;;1714293;28;20205;-71
2022/07/09 06:09:04;;;;;;;5.50;2.95;;;17.70;97.20;;;;;;1714272;28;20197;-71
2022/07/09 06:09:56;;;;;;;3.47;2.37;;;17.80;97.20;;;;;;1714360;28;20280;-72
2022/07/09 06:10:47;;;;;;;4.82;2.70;;;17.80;97.20;;;;;;1714329;28;20212;-71
2022/07/09 06:11:38;;;;;;;4.67;2.73;;;17.80;97.20;;;;;;1714281;28;20285;-72
2022/07/09 06:12:29;;;;;;;3.95;2.42;;;17.90;97.20;;;;;;1714426;28;20855;-71
2022/07/09 06:13:21;;;;;;;3.60;2.53;;;17.90;97.20;;;;;;1714136;28;20616;-71
2022/07/09 06:14:12;;;;;;;5.28;2.80;;;17.90;97.20;;;;;;1714375;28;20210;-72
2022/07/09 06:15:05;;;;;;;6.47;2.63;;;18.00;97.20;;;;;;1714293;28;20289;-71
2022/07/09 06:15:55;;;;;;;3.50;2.20;;;18.00;97.20;;;;;;1714151;28;20452;-71
2022/07/09 06:16:48;;;;;;;5.10;2.90;;;18.00;97.20;;;;;;1714146;28;20204;-71
2022/07/09 06:17:40;;;;;;;4.95;2.58;;;18.00;97.20;;;;;;1714238;28;20453;-71
2022/07/09 06:18:31;;;;;;;5.03;2.92;;;18.10;97.20;;;;;;1714273;28;20210;-71
2022/07/09 06:19:23;;;;;;;4.45;2.97;;;18.10;97.20;;;;;;1714355;28;20294;-71
2022/07/09 06:20:15;;;;;;;4.63;2.67;;;18.10;97.20;;;;;;1714186;28;20255;-71
2022/07/09 06:21:06;;;;;;;2.88;2.42;;;18.10;97.20;;;;;;1714255;28;20208;-71
2022/07/09 06:21:58;;;;;;;6.47;2.90;;;18.20;97.20;;;;;;1714264;28;20200;-71
2022/07/09 06:22:49;;;;;;;4.45;3.10;;;18.20;97.20;;;;;;1714234;28;20456;-71
2022/07/09 06:23:40;;;;;;;6.27;2.80;;;18.30;97.20;;;;;;1714129;28;20228;-71
2022/07/09 06:24:31;;;;;;;3.40;2.67;;;18.30;97.20;;;;;;1714329;28;20205;-71
2022/07/09 06:25:23;;;;;;;2.73;2.53;;;18.30;97.20;;;;;;1714226;28;20301;-71
2022/07/09 06:26:14;;;;;;;3.55;2.90;;;18.40;97.20;;;;;;1714170;28;20253;-71
2022/07/09 06:27:06;;;;;;;5.53;2.23;;;18.40;97.20;;;;;;1713971;28;20201;-71
2022/07/09 06:27:57;;;;;;;3.17;2.88;;;18.40;97.20;;;;;;1714163;28;20202;-71
2022/07/09 06:28:49;;;;;;;4.30;2.40;;;18.40;97.20;;;;;;1714179;28;20197;-72
2022/07/09 06:29:39;;;;;;;3.42;2.75;;;18.40;97.20;;;;;;1714192;28;20206;-71
2022/07/09 06:30:32;;;;;;;3.70;2.50;;;18.50;97.20;;;;;;1714279;28;20673;-71
2022/07/09 06:31:23;;;;;;;5.38;2.95;;;18.50;97.20;;;;;;1714218;28;20244;-71
2022/07/09 06:32:14;;;;;;;4.17;2.50;;;18.50;97.20;;;;;;1714237;28;20198;-71
2022/07/09 06:33:07;;;;;;;4.18;2.60;;;18.60;97.20;;;;;;1714114;28;20224;-71
2022/07/09 06:33:58;;;;;;;6.05;2.60;;;18.60;97.20;;;;;;1713825;28;20237;-71
2022/07/09 06:34:49;;;;;;;3.90;2.80;;;18.60;97.20;;;;;;1714216;28;20688;-71
2022/07/09 06:35:41;;;;;;;4.10;2.70;;;18.60;97.20;;;;;;1714153;28;20669;-71
2022/07/09 06:36:32;;;;;;;2.60;2.33;;;18.70;97.20;;;;;;1714173;28;20206;-71
2022/07/09 06:37:23;;;;;;;2.97;2.67;;;18.70;97.20;;;;;;1714264;28;20704;-71
2022/07/09 06:38:14;;;;;;;3.08;2.00;;;18.70;97.20;;;;;;1714161;28;20202;-71
2022/07/09 06:40:15;;;;;;;4.85;2.53;;;18.80;97.20;;;;;;1714165;28;20276;-71
2022/07/09 06:41:06;;;;;;;5.18;2.60;;;18.80;97.20;;;;;;1714198;28;20201;-71
2022/07/09 06:42:05;;;;;;;4.53;2.33;;;18.90;97.20;;;;;;1714173;28;20198;-71
2022/07/09 06:42:56;;;;;;;6.57;2.97;;;18.90;97.20;;;;;;1714195;28;20292;-71
2022/07/09 06:43:47;;;;;;;3.45;2.88;;;18.90;97.20;;;;;;1714022;28;20229;-72
2022/07/09 06:44:39;;;;;;;3.90;2.63;;;18.90;97.20;;;;;;1714150;28;20288;-71
2022/07/09 06:45:30;;;;;;;3.35;2.67;;;19.00;97.20;;;;;;1714188;28;20216;-71
2022/07/09 06:46:22;;;;;;;4.50;3.50;;;19.00;97.20;;;;;;1713996;28;20206;-71
2022/07/09 06:47:13;;;;;;;3.97;2.30;;;19.00;97.20;;;;;;1713814;28;20956;-71
2022/07/09 06:48:05;;;;;;;5.28;2.40;;;19.00;97.20;;;;;;1714034;28;20202;-72
2022/07/09 06:48:57;;;;;;;5.07;2.58;;;19.10;97.20;;;;;;1714084;28;20206;-71
2022/07/09 06:49:49;;;;;;;3.22;2.47;;;19.10;97.20;;;;;;1714107;28;20235;-72
2022/07/09 06:50:40;;;;;;;4.50;2.30;;;19.10;97.20;;;;;;1714111;28;20206;-72
2022/07/09 06:51:31;;;;;;;3.77;2.50;;;19.10;97.20;;;;;;1714167;28;20297;-71
2022/07/09 06:52:23;;;;;;;4.00;2.50;;;19.10;97.20;;;;;;1714129;28;20286;-71
2022/07/09 06:53:14;;;;;;;6.53;2.60;;;19.20;97.20;;;;;;1714025;28;20584;-71
2022/07/09 06:54:06;;;;;;;6.10;3.07;;;19.20;97.20;;;;;;1714054;28;20635;-71
2022/07/09 06:54:56;;;;;;;3.95;2.53;;;19.20;97.20;;;;;;1714049;28;20811;-71
2022/07/09 06:55:48;;;;;;;3.90;2.40;;;19.20;97.20;;;;;;1714097;28;20681;-71
2022/07/09 06:56:39;;;;;;;4.25;2.70;;;19.20;97.20;;;;;;1713809;28;20244;-71
2022/07/09 06:57:31;;;;;;;4.20;3.03;;;19.30;97.20;;;;;;1714063;28;20217;-71
2022/07/09 06:58:21;;;;;;;3.63;2.80;;;19.30;97.20;;;;;;1713827;28;20209;-72
2022/07/09 06:59:13;;;;;;;3.63;2.90;;;19.30;97.20;;;;;;1713519;28;20237;-71
2022/07/09 07:00:05;;;;;;;5.00;2.70;;;19.30;97.20;;;;;;1713964;28;20316;-71
2022/07/09 07:00:57;;;;;;;5.10;2.20;;;19.30;97.20;;;;;;1714061;28;20264;-71
2022/07/09 07:01:48;;;;;;;4.40;2.50;;;19.40;97.20;;;;;;1714029;28;20206;-71
2022/07/09 07:02:40;;;;;;;4.40;2.53;;;19.40;97.20;;;;;;1714087;28;20210;-71
2022/07/09 07:03:31;;;;;;;3.90;2.33;;;19.40;97.20;;;;;;1713933;28;20227;-71
2022/07/09 07:04:25;;;;;;;4.13;2.20;;;19.40;97.20;;;;;;1713886;28;20197;-72
2022/07/09 07:05:15;;;;;;;4.10;2.35;;;19.50;97.20;;;;;;1713985;28;20720;-71
2022/07/09 07:06:07;;;;;;;2.77;2.30;;;19.50;97.20;;;;;;1713932;28;21010;-72
2022/07/09 07:06:59;;;;;;;5.13;2.75;;;19.50;97.20;;;;;;1713846;28;20236;-72
2022/07/09 07:07:50;;;;;;;3.58;2.65;;;19.50;97.20;;;;;;1713941;28;20208;-72
2022/07/09 07:08:41;;;;;;;3.83;3.07;;;19.50;97.20;;;;;;1713984;28;20285;-72
2022/07/09 07:09:32;;;;;;;5.22;2.90;;;19.50;97.20;;;;;;1714001;28;20214;-71
2022/07/09 07:10:24;;;;;;;3.23;2.47;;;19.60;97.20;;;;;;1713902;28;20284;-72
2022/07/09 07:11:15;;;;;;;3.80;2.40;;;19.60;97.20;;;;;;1713989;28;20916;-71
2022/07/09 07:12:08;;;;;;;3.77;2.23;;;19.60;97.20;;;;;;1714056;28;20598;-71
2022/07/09 07:12:59;;;;;;;3.00;2.40;;;19.60;97.20;;;;;;1713888;28;20202;-72
2022/07/09 07:13:50;;;;;;;4.53;2.60;;;19.60;97.20;;;;;;1713940;28;20300;-72
2022/07/09 07:14:42;;;;;;;5.03;2.50;;;19.70;97.20;;;;;;1713510;28;20213;-71
2022/07/09 07:15:33;;;;;;;3.85;2.80;;;19.70;97.20;;;;;;1713987;28;20685;-71
2022/07/09 07:16:25;;;;;;;3.33;2.43;;;19.80;97.20;;;;;;1713919;28;20657;-72
2022/07/09 07:17:16;;;;;;;6.57;2.90;;;19.80;97.20;;;;;;1713842;28;20202;-71
2022/07/09 07:18:08;;;;;;;8.33;2.67;;;19.80;97.20;;;;;;1713828;28;20201;-72
2022/07/09 07:18:58;;;;;;;5.30;2.90;;;19.90;97.20;;;;;;1713931;28;20441;-72
2022/07/09 07:19:52;;;;;;;3.70;3.03;;;19.90;97.20;;;;;;1713853;28;20236;-72
2022/07/09 07:20:43;;;;;;;7.20;2.45;;;19.90;97.20;;;;;;1713766;28;20264;-72
2022/07/09 07:21:36;;;;;;;4.47;3.00;;;19.90;97.20;;;;;;1713961;28;20201;-71
2022/07/09 07:22:26;;;;;;;6.05;2.20;;;19.90;97.20;;;;;;1713421;28;20209;-72
2022/07/09 07:23:18;;;;;;;8.60;2.80;;;20.00;97.20;;;;;;1713427;28;20252;-72
2022/07/09 07:24:09;;;;;;;3.33;2.70;;;20.00;97.20;;;;;;1713726;28;20228;-72
2022/07/09 07:25:01;;;;;;;5.00;2.53;;;20.00;97.20;;;;;;1713971;28;20220;-72
2022/07/09 07:25:51;;;;;;;7.30;3.08;;;20.00;97.20;;;;;;1713896;28;20808;-72
2022/07/09 07:26:43;;;;;;;4.03;2.67;;;20.00;97.20;;;;;;1713778;28;20284;-71
2022/07/09 07:27:34;;;;;;;3.65;2.45;;;20.10;97.20;;;;;;1713993;28;20575;-71
2022/07/09 07:28:26;;;;;;;5.70;2.40;;;20.10;97.20;;;;;;1713853;28;20643;-71
2022/07/09 07:29:17;;;;;;;4.15;2.22;;;20.20;97.20;;;;;;1713960;28;20210;-72
2022/07/09 07:30:09;;;;;;;3.23;2.60;;;20.20;97.20;;;;;;1713867;28;20701;-72
2022/07/09 07:31:00;;;;;;;4.30;3.00;;;20.30;97.20;;;;;;1714003;28;20202;-72
2022/07/09 07:31:52;;;;;;;6.13;2.63;;;20.30;97.20;;;;;;1713875;28;20221;-72
2022/07/09 07:32:42;;;;;;;3.95;2.90;;;20.40;97.20;;;;;;1713887;28;20201;-72
2022/07/09 07:33:33;;;;;;;4.73;2.40;;;20.40;97.20;;;;;;1713921;28;20214;-72
2022/07/09 07:34:25;;;;;;;3.27;2.50;;;20.50;97.20;;;;;;1713894;28;20293;-72
2022/07/09 07:35:17;;;;;;;3.08;2.55;;;20.50;97.20;;;;;;1713851;28;20224;-72
2022/07/09 07:36:09;;;;;;;3.22;2.13;;;20.60;97.20;;;;;;1713831;28;20665;-72
2022/07/09 07:36:59;;;;;;;3.88;2.00;;;20.60;97.20;;;;;;1713722;28;20202;-72
2022/07/09 07:37:51;;;;;;;3.37;1.90;;;20.60;97.20;;;;;;1713872;28;20202;-72
2022/07/09 07:38:42;;;;;;;3.17;2.40;;;20.60;97.20;;;;;;1713973;28;20214;-72
2022/07/09 07:39:34;;;;;;;3.10;2.00;;;20.70;97.20;;;;;;1713838;28;20296;-72
2022/07/09 07:40:25;;;;;;;4.38;2.30;;;20.70;97.20;;;;;;1713778;28;20320;-72
2022/07/09 07:41:18;;;;;;;3.70;2.03;;;20.70;97.20;;;;;;1713913;28;20198;-72
2022/07/09 07:42:09;;;;;;;5.55;2.92;;;20.70;97.20;;;;;;1713846;28;20241;-72
2022/07/09 07:43:01;;;;;;;4.70;2.80;;;20.70;97.20;;;;;;1713866;28;20221;-72
2022/07/09 07:43:52;;;;;;;3.10;2.25;;;20.80;97.20;;;;;;1713857;28;20209;-72
2022/07/09 07:44:43;;;;;;;4.60;2.80;;;20.80;97.20;;;;;;1714000;28;20300;-72
2022/07/09 07:45:34;;;;;;;8.20;3.10;;;20.80;97.20;;;;;;1713949;28;20481;-72
2022/07/09 07:46:26;;;;;;;7.13;3.60;;;20.90;97.20;;;;;;1713831;28;20233;-72
2022/07/09 07:47:17;;;;;;;5.05;3.78;;;20.90;97.20;;;;;;1713625;28;20296;-72
2022/07/09 07:48:09;;;;;;;7.50;2.80;;;21.00;97.20;;;;;;1713845;28;20661;-72
2022/07/09 07:48:59;;;;;;;3.10;2.30;;;21.00;97.20;;;;;;1713953;28;20209;-72
2022/07/09 07:49:51;;;;;;;6.97;2.47;;;21.00;97.20;;;;;;1713798;28;20222;-72
2022/07/09 07:50:43;;;;;;;3.28;2.40;;;21.00;97.20;;;;;;1713991;28;20237;-72
2022/07/09 07:51:35;;;;;;;5.20;2.42;;;21.00;97.20;;;;;;1713930;28;20206;-71
2022/07/09 07:52:26;;;;;;;3.45;2.30;;;21.00;97.20;;;;;;1713909;28;20300;-72
2022/07/09 07:53:18;;;;;;;3.60;2.10;;;21.10;97.20;;;;;;1713851;28;20264;-72
2022/07/09 07:54:09;;;;;;;3.75;2.35;;;21.10;97.20;;;;;;1713911;28;20209;-72
2022/07/09 07:55:00;;;;;;;4.70;2.27;;;21.10;97.20;;;;;;1713752;28;20234;-72
2022/07/09 07:55:51;;;;;;;4.20;2.20;;;21.10;97.20;;;;;;1713733;28;20198;-72
2022/07/09 07:56:43;;;;;;;3.10;2.00;;;21.10;97.20;;;;;;1713632;28;20297;-72
2022/07/09 07:57:34;;;;;;;3.08;2.40;;;21.10;97.20;;;;;;1713906;28;20212;-72
2022/07/09 07:58:25;;;;;;;4.77;2.10;;;21.10;97.20;;;;;;1713795;28;20205;-73
2022/07/09 07:59:16;;;;;;;3.03;2.00;;;21.10;97.20;;;;;;1713825;28;20696;-72
2022/07/09 08:00:09;;;;;;;9.73;1.95;;;21.10;97.20;;;;;;1713727;28;20241;-72
2022/07/09 08:01:00;;;;;;;3.45;2.15;;;21.20;97.20;;;;;;1713923;28;20220;-72
2022/07/09 08:01:52;;;;;;;5.27;1.80;;;21.20;97.20;;;;;;1713815;28;20704;-73
2022/07/09 08:02:43;;;;;;;4.55;2.35;;;21.20;97.20;;;;;;1713854;28;20808;-73
2022/07/09 08:03:35;;;;;;;5.95;2.25;;;21.20;97.20;;;;;;1713697;28;20249;-72
2022/07/09 08:04:26;;;;;;;3.25;2.47;;;21.20;97.20;;;;;;1713776;28;20210;-72
2022/07/09 08:05:18;;;;;;;3.70;2.00;;;21.20;97.20;;;;;;1713784;28;20281;-72
2022/07/09 08:06:10;;;;;;;3.53;2.20;;;21.30;97.20;;;;;;1713760;28;20206;-74
2022/07/09 08:07:02;;;;;;;5.35;2.25;;;21.30;97.20;;;;;;1713612;28;20216;-72
2022/07/09 08:07:52;;;;;;;7.35;2.42;;;21.30;97.20;;;;;;1713765;28;20206;-72
2022/07/09 08:08:44;;;;;;;3.13;1.80;;;21.40;97.20;;;;;;1713856;28;20724;-72
2022/07/09 08:09:35;;;;;;;7.30;3.33;;;21.40;97.20;;;;;;1713860;28;20206;-72
2022/07/09 08:10:26;;;;;;;4.30;2.50;;;21.40;97.20;;;;;;1714547;28;20297;-72
2022/07/09 08:11:18;;;;;;;3.87;2.30;;;21.50;97.20;;;;;;1715048;28;21011;-72
2022/07/09 08:12:09;;;;;;;2.67;1.90;;;21.50;97.20;;;;;;1715156;28;20454;-72
2022/07/09 08:13:01;;;;;;;3.42;2.45;;;21.60;97.20;;;;;;1714991;28;20190;-72
2022/07/09 08:13:51;;;;;;;3.65;1.80;;;21.60;97.20;;;;;;1715077;28;20351;-72
2022/07/09 08:14:43;;;;;;;4.73;2.07;;;21.60;97.20;;;;;;1714721;28;20300;-72
2022/07/09 08:15:34;;;;;;;4.57;1.65;;;21.60;97.20;;;;;;1715084;28;20210;-72
2022/07/09 08:16:25;;;;;;;2.27;1.60;;;21.60;97.20;;;;;;1715087;28;20288;-73
2022/07/09 08:17:16;;;;;;;4.30;1.80;;;21.60;97.20;;;;;;1714840;28;20202;-72
2022/07/09 08:18:12;;;;;;;2.63;1.50;;;21.60;97.20;;;;;;1714956;28;20203;-72
2022/07/09 08:19:02;;;;;;;5.15;2.10;;;21.60;97.20;;;;;;1715073;28;20210;-72
2022/07/09 08:19:54;;;;;;;4.53;2.03;;;21.60;97.20;;;;;;1715028;28;20206;-72
2022/07/09 08:20:46;;;;;;;4.38;2.05;;;21.60;97.20;;;;;;1715002;28;20516;-72
2022/07/09 08:21:39;;;;;;;5.25;2.05;;;21.60;97.20;;;;;;1715024;28;20206;-72
2022/07/09 08:22:30;;;;;;;1.98;1.88;;;21.60;97.20;;;;;;1715008;28;20591;-72
2022/07/09 08:23:22;;;;;;;2.83;1.60;;;21.60;97.20;;;;;;1714996;28;20233;-72
2022/07/09 08:24:13;;;;;;;2.63;1.92;;;21.70;97.20;;;;;;1714990;28;20202;-72
2022/07/09 08:25:05;;;;;;;6.03;2.20;;;21.70;97.20;;;;;;1715109;28;20281;-72
2022/07/09 08:25:56;;;;;;;6.15;1.80;;;21.70;97.20;;;;;;1714919;28;20206;-69
2022/07/09 08:26:48;;;;;;;4.03;2.33;;;21.70;97.20;;;;;;1714710;28;20280;-72
2022/07/09 08:27:39;;;;;;;2.40;2.20;;;21.70;97.20;;;;;;1715006;28;20821;-72
2022/07/09 08:28:31;;;;;;;3.37;1.90;;;21.70;97.20;;;;;;1714869;28;20292;-72
2022/07/09 08:29:21;;;;;;;5.00;2.10;;;21.80;97.20;;;;;;1706409;28;20519;-72
2022/07/09 08:30:13;;;;;;;4.20;2.47;;;21.80;97.20;;;;;;1714453;28;20281;-72
2022/07/09 08:31:04;;;;;;;3.42;1.75;;;21.90;97.20;;;;;;1712677;28;20441;-71
2022/07/09 08:31:56;;;;;;;4.83;2.07;;;22.00;97.20;;;;;;1714797;28;20289;-72
2022/07/09 08:32:47;;;;;;;5.43;1.80;;;22.00;97.20;;;;;;1714893;28;20577;-72
2022/07/09 08:33:39;;;;;;;5.20;2.10;;;22.10;97.20;;;;;;1714855;28;20285;-72
2022/07/09 08:34:30;;;;;;;3.88;2.20;;;22.10;97.20;;;;;;1714943;28;20213;-72
2022/07/09 08:35:22;;;;;;;4.38;1.60;;;22.20;97.20;;;;;;1714940;28;20225;-72
2022/07/09 08:36:13;;;;;;;4.68;2.15;;;22.20;97.20;;;;;;1706480;28;20209;-71
2022/07/09 08:37:07;;;;;;;4.65;2.20;;;22.20;97.20;;;;;;1713473;28;20193;-71
2022/07/09 08:37:57;;;;;;;4.07;1.90;;;22.20;97.20;;;;;;1713698;28;20210;-71
2022/07/09 08:38:49;;;;;;;3.50;2.10;;;22.10;97.20;;;;;;1713791;28;20297;-71
2022/07/09 08:39:40;;;;;;;4.00;1.90;;;22.10;97.20;;;;;;1707268;28;20203;-72
2022/07/09 08:40:32;;;;;;;2.60;2.20;;;22.10;97.20;;;;;;1710909;28;20217;-72
2022/07/09 08:41:23;;;;;;;7.70;2.30;;;22.10;97.20;;;;;;1712420;28;20206;-71
2022/07/09 08:42:16;;;;;;;3.28;1.75;;;22.10;97.20;;;;;;1712284;28;20213;-71
2022/07/09 08:43:09;;;;;;;4.10;2.15;;;22.10;97.20;;;;;;1714653;28;20294;-71
2022/07/09 08:44:04;;;;;;;3.30;2.22;;;22.10;97.20;;;;;;1714691;28;20371;-72
2022/07/09 08:44:55;;;;;;;3.88;2.30;;;22.10;97.20;;;;;;1714792;28;20198;-72
2022/07/09 08:45:49;;;;;;;2.40;1.83;;;22.20;97.20;;;;;;1714716;28;20245;-71
2022/07/09 08:46:40;;;;;;;3.63;1.90;;;22.20;97.20;;;;;;1712795;28;20213;-70
2022/07/09 08:47:34;;;;;;;3.15;2.30;;;22.20;97.20;;;;;;1707644;28;20202;-71
2022/07/09 08:48:25;;;;;;;4.53;2.33;;;22.30;97.20;;;;;;1714194;28;20209;-71
2022/07/09 08:49:17;;;;;;;4.80;2.70;;;22.30;97.20;;;;;;1714158;28;20202;-72
2022/07/09 08:50:08;;;;;;;4.95;2.72;;;22.30;97.20;;;;;;1714155;28;20206;-71
2022/07/09 08:51:01;;;;;;;3.20;2.25;;;22.30;97.20;;;;;;1713984;28;20525;-71
2022/07/09 08:51:53;;;;;;;2.95;1.98;;;22.30;97.20;;;;;;1713925;28;20288;-71
2022/07/09 08:52:47;;;;;;;2.60;2.40;;;22.30;97.20;;;;;;1714217;28;20229;-71
2022/07/09 08:53:40;;;;;;;4.70;2.20;;;22.30;97.20;;;;;;1714133;28;20701;-71
2022/07/09 08:54:35;;;;;;;4.13;2.20;;;22.30;97.20;;;;;;1714157;28;20661;-71
2022/07/09 08:55:28;;;;;;;4.28;2.47;;;22.30;97.20;;;;;;1714059;28;20260;-71
2022/07/09 08:56:20;;;;;;;6.88;2.40;;;22.30;97.20;;;;;;1714323;28;20313;-71
2022/07/09 08:57:11;;;;;;;3.88;2.65;;;22.30;97.20;;;;;;1713966;28;20202;-71
2022/07/09 08:58:03;;;;;;;3.53;2.40;;;22.30;97.20;;;;;;1714646;28;20294;-71
2022/07/09 08:58:53;;;;;;;2.88;2.35;;;22.30;97.20;;;;;;1714826;28;20202;-71
2022/07/09 08:59:45;;;;;;;3.30;2.00;;;22.30;97.20;;;;;;1714809;28;20206;-71
2022/07/09 09:00:36;;;;;;;2.90;2.35;;;22.30;97.20;;;;;;1714648;28;20210;-71
2022/07/09 09:01:28;;;;;;;3.30;2.10;;;22.30;97.20;;;;;;1714719;28;20289;-71
2022/07/09 09:02:20;;;;;;;3.55;2.63;;;22.30;97.20;;;;;;1714808;28;20779;-71
2022/07/09 09:03:11;;;;;;;3.97;2.20;;;22.30;97.20;;;;;;1714653;28;20208;-71
2022/07/09 09:04:02;;;;;;;4.45;2.17;;;22.30;97.20;;;;;;1714808;28;20213;-71
2022/07/09 09:04:55;;;;;;;2.95;1.95;;;22.30;97.20;;;;;;1714826;28;20230;-71
2022/07/09 09:06:01;;;;;;;2.75;1.95;;;22.40;97.20;;;;;;1714786;28;20206;-71
2022/07/09 09:06:53;;;;;;;5.15;2.42;;;22.40;97.20;;;;;;1714549;28;20296;-71
2022/07/09 09:07:45;;;;;;;3.28;2.05;;;22.50;97.20;;;;;;1714611;28;20214;-71
2022/07/09 09:08:38;;;;;;;2.95;2.15;;;22.50;97.20;;;;;;1714714;28;20201;-71
2022/07/09 09:09:35;;;;;;;4.38;2.45;;;22.60;97.20;;;;;;1714597;28;20205;-71
2022/07/09 09:10:28;;;;;;;4.00;2.53;;;22.70;97.20;;;;;;1714754;28;20260;-71
2022/07/09 09:11:22;;;;;;;5.90;2.53;;;22.70;97.20;;;;;;1714590;28;20202;-71
2022/07/09 09:12:14;;;;;;;4.63;2.35;;;22.70;97.20;;;;;;1714753;28;20209;-71
2022/07/09 09:13:05;;;;;;;3.88;2.58;;;22.80;97.20;;;;;;1714500;28;20217;-72
2022/07/09 09:13:57;;;;;;;6.83;2.80;;;22.80;97.20;;;;;;1714767;28;20280;-72
2022/07/09 09:14:49;;;;;;;4.57;2.50;;;22.80;97.20;;;;;;1714336;28;20209;-71
2022/07/09 09:15:41;;;;;;;3.55;2.50;;;22.90;97.20;;;;;;1714833;28;20545;-71
2022/07/09 09:16:41;;;;;;;5.50;2.40;;;22.90;97.20;;;;;;1714598;28;20217;-71
2022/07/09 09:17:33;;;;;;;3.03;2.05;;;22.90;97.20;;;;;;1714674;28;20272;-71
2022/07/09 09:18:24;;;;;;;4.30;2.20;;;22.90;97.20;;;;;;1714591;28;20206;-71
2022/07/09 09:19:16;;;;;;;7.10;2.30;;;23.00;97.20;;;;;;1714010;28;20290;-72
2022/07/09 09:20:12;;;;;;;3.78;1.95;;;23.00;97.20;;;;;;1714606;28;20445;-72
2022/07/09 09:21:08;;;;;;;3.33;1.90;;;23.00;97.20;;;;;;1714504;28;20186;-72
2022/07/09 09:21:59;;;;;;;6.45;3.00;;;23.00;97.20;;;;;;1713966;28;20213;-72
2022/07/09 09:22:59;;;;;;;2.47;1.67;;;23.10;97.20;;;;;;1714712;28;20197;-72
2022/07/09 09:23:52;;;;;;;3.63;2.15;;;23.20;97.20;;;;;;1712661;28;20476;-72
2022/07/09 09:24:45;;;;;;;3.17;2.00;;;23.20;97.20;;;;;;1714643;28;20286;-72
2022/07/09 09:25:36;;;;;;;4.30;1.77;;;23.20;97.20;;;;;;1714728;28;20690;-72
2022/07/09 09:26:29;;;;;;;3.45;1.67;;;23.20;97.20;;;;;;1714525;28;20201;-72
2022/07/09 09:27:28;;;;;;;2.65;2.00;;;23.20;97.20;;;;;;1714381;28;20220;-72
2022/07/09 09:28:20;;;;;;;3.13;2.25;;;23.30;97.20;;;;;;1714629;28;20205;-71
2022/07/09 09:29:11;;;;;;;2.58;2.10;;;23.30;97.20;;;;;;1714586;28;20206;-71
2022/07/09 09:30:03;;;;;;;3.73;2.10;;;23.40;97.20;;;;;;1714696;28;20697;-72
2022/07/09 09:30:54;;;;;;;3.13;2.10;;;23.50;97.20;;;;;;1714441;28;20218;-72